Time;durP1;ratioP1;P1;durP2;ratioP2;P2;SDS_P1;SDS_P2;PMS_P1;PMS_P2;Temp;Humidity;BMP_temperature;BMP_pressure;BME280_temperature;BME280_humidity;BME280_pressure;Samples;Min_cycle;Max_cycle;Signal;HPM_P1;HPM_P2
2022/06/17 04:02:36;;;;;;;3.73;1.40;;;16.50;96.30;;;;;;4994052;23;20492;-77
2022/06/17 04:05:04;;;;;;;3.83;1.40;;;16.80;96.30;;;;;;4993913;28;20416;-78
2022/06/17 04:07:30;;;;;;;4.53;1.43;;;17.40;96.30;;;;;;4992361;28;20529;-77
2022/06/17 04:09:55;;;;;;;2.87;1.70;;;18.20;95.80;;;;;;4994063;28;20420;-77
2022/06/17 04:12:26;;;;;;;3.00;1.60;;;18.90;92.00;;;;;;4993914;28;20201;-77
2022/06/17 04:15:00;;;;;;;3.10;1.80;;;19.40;90.00;;;;;;4998295;28;20206;-75
2022/06/17 04:17:48;;;;;;;1.87;1.67;;;19.40;89.20;;;;;;4984866;28;20468;-74
2022/06/17 04:22:40;;;;;;;3.77;1.40;;;19.50;89.00;;;;;;5456101;22;20500;-75
2022/06/17 04:25:11;;;;;;;2.20;1.60;;;19.20;90.50;;;;;;4993656;28;20704;-75
2022/06/17 04:30:33;;;;;;;7.30;2.43;;;20.50;87.30;;;;;;4993765;28;20452;-74
2022/06/17 04:33:04;;;;;;;3.83;1.67;;;21.30;83.70;;;;;;4991739;28;20499;-75
2022/06/17 04:35:30;;;;;;;7.00;1.70;;;21.60;82.40;;;;;;4992427;28;20428;-75
2022/06/17 04:37:55;;;;;;;3.40;1.60;;;22.20;81.80;;;;;;4992861;28;20468;-75
2022/06/17 04:40:30;;;;;;;1.97;1.43;;;22.10;81.60;;;;;;4993538;28;20248;-75
2022/06/17 04:42:58;;;;;;;1.63;1.53;;;22.80;79.30;;;;;;4991329;28;20186;-75
2022/06/17 04:45:29;;;;;;;3.70;1.40;;;23.20;78.40;;;;;;4993414;28;20427;-76
2022/06/17 04:47:57;;;;;;;2.77;1.50;;;23.40;77.60;;;;;;4993019;28;20412;-76
2022/06/17 04:50:26;;;;;;;4.97;1.50;;;23.40;77.80;;;;;;4993406;28;20413;-76
2022/06/17 04:52:54;;;;;;;1.97;1.60;;;23.70;77.20;;;;;;4992227;28;20416;-75
2022/06/17 04:55:28;;;;;;;4.63;1.77;;;24.70;75.20;;;;;;4993389;28;20408;-75
2022/06/17 04:57:54;;;;;;;3.90;1.77;;;24.20;75.60;;;;;;4993011;28;20456;-76
2022/06/17 05:00:25;;;;;;;2.27;1.77;;;24.50;75.60;;;;;;4993195;28;20416;-74
2022/06/17 05:02:51;;;;;;;2.70;1.60;;;24.30;75.40;;;;;;4989999;28;20415;-76
2022/06/17 05:05:37;;;;;;;2.50;1.53;;;23.40;78.40;;;;;;4991156;28;20420;-76
2022/06/17 05:08:09;;;;;;;2.83;1.67;;;24.00;77.30;;;;;;4975375;28;20562;-75
2022/06/17 05:10:39;;;;;;;2.47;1.40;;;24.80;75.20;;;;;;4993116;28;20792;-75
2022/06/17 05:13:17;;;;;;;12.23;2.50;;;25.20;74.70;;;;;;4993309;28;20430;-75
2022/06/17 05:15:43;;;;;;;2.27;1.50;;;25.40;73.40;;;;;;4992608;28;20423;-74
2022/06/17 05:18:09;;;;;;;6.00;1.57;;;25.70;73.00;;;;;;4993021;28;20468;-75
2022/06/17 05:20:34;;;;;;;2.30;1.53;;;25.70;73.90;;;;;;4993019;28;20438;-75
2022/06/17 05:23:03;;;;;;;4.00;1.90;;;26.30;72.10;;;;;;4993167;28;20183;-76
2022/06/17 05:25:32;;;;;;;9.87;1.70;;;26.00;72.30;;;;;;4993152;28;20187;-75
2022/06/17 05:27:58;;;;;;;5.53;2.20;;;26.40;71.80;;;;;;4993058;28;20419;-76
2022/06/17 05:30:23;;;;;;;7.50;2.03;;;25.70;73.50;;;;;;4993141;28;20416;-75
2022/06/17 05:32:53;;;;;;;14.90;2.10;;;26.60;71.10;;;;;;4993610;28;20183;-75
2022/06/17 05:35:20;;;;;;;7.10;1.67;;;26.40;70.20;;;;;;4993225;28;20183;-76
2022/06/17 05:37:46;;;;;;;6.43;1.60;;;25.90;72.20;;;;;;4992913;28;20808;-75
2022/06/17 05:40:12;;;;;;;3.50;1.70;;;25.70;72.70;;;;;;4993143;28;20500;-75
2022/06/17 05:42:40;;;;;;;1.83;1.40;;;26.60;70.90;;;;;;4993342;28;20179;-76
2022/06/17 05:45:07;;;;;;;7.63;1.43;;;27.30;69.00;;;;;;4993046;28;20964;-76
2022/06/17 05:47:32;;;;;;;2.40;1.30;;;28.20;66.20;;;;;;4992735;28;20412;-75
2022/06/17 05:49:58;;;;;;;2.50;1.30;;;28.40;64.60;;;;;;5002540;28;20439;-77
2022/06/17 05:52:23;;;;;;;5.03;1.63;;;27.80;65.70;;;;;;5017636;28;20193;-77
2022/06/17 05:54:49;;;;;;;8.00;1.73;;;28.30;63.60;;;;;;5007808;28;20185;-76
2022/06/17 05:57:16;;;;;;;5.67;1.27;;;28.30;62.00;;;;;;4994713;28;20193;-77
2022/06/17 05:59:41;;;;;;;1.70;1.37;;;27.80;64.70;;;;;;4975339;28;20931;-77
2022/06/17 06:02:11;;;;;;;2.60;1.03;;;26.60;65.60;;;;;;4975220;28;20436;-77
2022/06/17 06:04:37;;;;;;;1.77;1.00;;;27.10;63.60;;;;;;4989380;28;20192;-77
2022/06/17 06:07:02;;;;;;;2.80;1.10;;;27.10;63.90;;;;;;4973085;28;20181;-77
2022/06/17 06:09:28;;;;;;;7.40;1.40;;;27.90;64.90;;;;;;4983432;28;20188;-77
2022/06/17 06:11:53;;;;;;;2.67;1.08;;;29.20;62.20;;;;;;4982159;28;20197;-76
2022/06/17 06:14:19;;;;;;;4.13;1.05;;;28.80;60.60;;;;;;4992524;28;20528;-78
2022/06/17 06:16:44;;;;;;;3.53;0.90;;;28.40;61.10;;;;;;4992398;28;20180;-78
2022/06/17 06:19:10;;;;;;;2.65;1.10;;;28.50;61.30;;;;;;4974879;28;20295;-78
2022/06/17 06:21:35;;;;;;;1.67;0.95;;;28.80;62.90;;;;;;4974574;28;20260;-78
2022/06/17 06:24:01;;;;;;;2.15;1.15;;;29.70;62.30;;;;;;4992285;28;20189;-78
2022/06/17 06:26:26;;;;;;;2.78;1.20;;;29.80;60.30;;;;;;4992804;28;20580;-78
2022/06/17 06:28:52;;;;;;;5.57;1.30;;;28.30;61.20;;;;;;4978456;28;20275;-78
2022/06/17 06:31:28;;;;;;;2.58;0.90;;;28.00;63.20;;;;;;4996163;28;20196;-78
2022/06/17 06:33:54;;;;;;;2.95;1.00;;;29.40;61.50;;;;;;4978298;28;20208;-78
2022/06/17 06:36:20;;;;;;;1.70;0.90;;;29.90;58.60;;;;;;4995843;28;20181;-78
2022/06/17 06:38:46;;;;;;;3.78;1.40;;;30.40;57.80;;;;;;4995347;28;20224;-78
2022/06/17 06:41:12;;;;;;;2.00;1.10;;;29.40;60.00;;;;;;4995818;28;20185;-78
2022/06/17 06:43:38;;;;;;;2.00;1.00;;;28.80;59.90;;;;;;4995813;28;20649;-78
2022/06/17 06:46:08;;;;;;;3.43;0.97;;;29.60;61.40;;;;;;4995743;28;20576;-78
2022/06/17 06:48:33;;;;;;;4.93;1.00;;;29.10;60.30;;;;;;4976887;28;20235;-78
2022/06/17 06:50:59;;;;;;;3.70;1.30;;;28.20;62.00;;;;;;4995420;28;20200;-78
2022/06/17 06:53:24;;;;;;;1.37;0.90;;;28.50;62.90;;;;;;4994970;28;20637;-78
2022/06/17 06:55:50;;;;;;;4.00;1.17;;;28.40;61.70;;;;;;4995233;28;20177;-78
2022/06/17 06:58:19;;;;;;;2.20;1.00;;;28.50;59.90;;;;;;4977393;28;20208;-78
2022/06/17 07:00:47;;;;;;;2.80;1.00;;;29.40;60.40;;;;;;4995459;28;20230;-77
2022/06/17 07:03:14;;;;;;;5.13;1.33;;;29.30;58.80;;;;;;4977785;28;20412;-77
2022/06/17 07:05:43;;;;;;;2.57;1.00;;;27.90;61.30;;;;;;4977877;28;20416;-77
2022/06/17 07:08:14;;;;;;;4.50;0.93;;;27.10;64.20;;;;;;4995304;28;20420;-77
2022/06/17 07:10:41;;;;;;;1.97;0.93;;;27.30;67.20;;;;;;4994881;28;20444;-77
2022/06/17 07:13:08;;;;;;;1.77;0.80;;;28.30;62.70;;;;;;4977625;28;20427;-78
2022/06/17 07:15:34;;;;;;;4.00;1.23;;;28.60;64.80;;;;;;4995218;28;20897;-77
2022/06/17 07:18:07;;;;;;;3.00;1.00;;;29.00;62.10;;;;;;4994765;28;20466;-78
2022/06/17 07:20:42;;;;;;;3.03;1.00;;;29.80;61.50;;;;;;4995139;28;21005;-78
2022/06/17 07:23:11;;;;;;;1.93;1.23;;;29.80;61.60;;;;;;4977328;28;20522;-78
2022/06/17 07:25:37;;;;;;;2.80;1.17;;;28.60;62.10;;;;;;4995095;28;20413;-78
2022/06/17 07:28:04;;;;;;;2.70;1.27;;;27.50;63.20;;;;;;4994494;28;20908;-79
2022/06/17 07:30:30;;;;;;;1.83;1.10;;;27.20;65.30;;;;;;4994753;28;20420;-78
2022/06/17 07:32:56;;;;;;;1.83;1.03;;;28.30;64.70;;;;;;4977114;28;20420;-78
2022/06/17 07:35:22;;;;;;;1.87;0.90;;;29.10;64.20;;;;;;4994873;28;20424;-78
2022/06/17 07:40:33;;;;;;;2.23;1.23;;;29.40;62.60;;;;;;4995013;28;20436;-78
2022/06/17 07:42:59;;;;;;;4.27;1.67;;;28.70;62.80;;;;;;4977198;28;20976;-78
2022/06/17 07:45:26;;;;;;;2.50;1.20;;;28.20;65.30;;;;;;4994504;28;20177;-78
2022/06/17 07:47:52;;;;;;;2.30;1.00;;;27.80;64.60;;;;;;4994036;28;20416;-78
2022/06/17 07:50:22;;;;;;;2.97;1.10;;;27.90;64.90;;;;;;4994670;28;20416;-79
2022/06/17 07:52:47;;;;;;;2.93;1.00;;;27.10;66.90;;;;;;4994222;28;20803;-77
2022/06/17 07:55:13;;;;;;;2.20;1.00;;;26.70;67.70;;;;;;4994516;28;20503;-77
2022/06/17 07:57:39;;;;;;;2.90;1.00;;;26.40;64.70;;;;;;4994092;28;20209;-76
2022/06/17 08:00:07;;;;;;;3.33;1.27;;;25.60;69.20;;;;;;4994442;28;20896;-76
2022/06/17 08:02:33;;;;;;;1.50;1.10;;;25.90;68.70;;;;;;4993925;28;20200;-77
2022/06/17 08:04:58;;;;;;;2.50;1.33;;;26.60;70.80;;;;;;4976947;28;20421;-76
2022/06/17 08:07:24;;;;;;;6.17;1.20;;;25.50;66.40;;;;;;4993838;28;20700;-77
2022/06/17 08:09:49;;;;;;;1.93;1.00;;;24.90;69.90;;;;;;4994110;28;20192;-76
2022/06/17 08:12:15;;;;;;;1.93;1.00;;;25.60;69.50;;;;;;4994093;28;20193;-76
2022/06/17 08:14:43;;;;;;;3.80;1.13;;;25.40;69.40;;;;;;4994121;28;20169;-76
2022/06/17 08:17:14;;;;;;;4.60;1.10;;;26.30;71.30;;;;;;4993967;28;20179;-77
2022/06/17 08:19:41;;;;;;;4.43;1.20;;;27.50;67.50;;;;;;4993750;28;20405;-77
2022/06/17 08:22:07;;;;;;;17.03;1.97;;;27.90;68.00;;;;;;4993564;28;20456;-76
2022/06/17 08:24:32;;;;;;;7.10;1.30;;;28.80;66.60;;;;;;4993633;28;20570;-75
2022/06/17 08:26:58;;;;;;;1.53;0.90;;;27.80;69.90;;;;;;4993757;28;21042;-75
2022/06/17 08:29:26;;;;;;;4.10;1.53;;;27.40;67.10;;;;;;4993581;28;20165;-75
2022/06/17 08:31:52;;;;;;;3.93;1.10;;;27.10;66.00;;;;;;4993176;28;20324;-76
2022/06/17 08:34:18;;;;;;;3.83;1.70;;;27.20;68.20;;;;;;4993660;28;20495;-76
2022/06/17 08:36:44;;;;;;;3.07;1.33;;;27.40;65.70;;;;;;4994708;28;20703;-76
2022/06/17 08:39:12;;;;;;;2.77;1.33;;;28.30;65.20;;;;;;4993119;28;20515;-76
2022/06/17 08:42:11;;;;;;;2.47;1.30;;;27.40;64.20;;;;;;4993165;28;20432;-75
2022/06/17 08:45:18;;;;;;;3.93;1.83;;;27.70;66.90;;;;;;4978869;28;20432;-75
2022/06/17 08:48:06;;;;;;;2.97;1.40;;;27.90;66.00;;;;;;4970828;28;20515;-77
2022/06/17 08:50:50;;;;;;;6.73;1.40;;;27.00;66.70;;;;;;4993355;28;20413;-77
2022/06/17 08:53:30;;;;;;;3.30;1.27;;;25.80;69.50;;;;;;4993358;28;20420;-77
2022/06/17 08:56:09;;;;;;;2.30;1.33;;;26.00;71.90;;;;;;4993097;28;20405;-78
2022/06/17 08:59:00;;;;;;;3.47;1.23;;;26.50;71.20;;;;;;4992616;28;20967;-77
2022/06/17 09:01:45;;;;;;;3.20;1.63;;;26.80;66.70;;;;;;4992901;28;20420;-76
2022/06/17 09:04:27;;;;;;;4.40;1.50;;;26.70;68.50;;;;;;4993495;28;20443;-77
2022/06/17 09:07:31;;;;;;;3.03;1.20;;;27.00;72.40;;;;;;4995071;28;20443;-78
2022/06/17 09:10:33;;;;;;;7.27;1.30;;;27.30;68.30;;;;;;4977046;28;20418;-78
2022/06/17 09:13:40;;;;;;;3.17;1.07;;;27.20;69.10;;;;;;4977210;28;20427;-77
2022/06/17 09:16:17;;;;;;;3.93;1.30;;;27.80;67.70;;;;;;4915573;29;20479;-77
2022/06/17 09:18:47;;;;;;;2.97;1.20;;;28.20;66.40;;;;;;4916264;29;20459;-77
2022/06/17 09:21:21;;;;;;;3.17;1.00;;;28.60;65.30;;;;;;4946584;28;20478;-76
2022/06/17 09:23:47;;;;;;;5.07;1.43;;;28.60;64.50;;;;;;4994812;28;20842;-76
2022/06/17 09:26:37;;;;;;;4.43;1.30;;;27.60;63.20;;;;;;4993973;28;20440;-76
2022/06/17 09:29:20;;;;;;;3.27;1.27;;;26.80;66.60;;;;;;4994467;28;20782;-76
2022/06/17 09:31:52;;;;;;;2.00;1.30;;;25.00;69.50;;;;;;4993992;28;20434;-78
2022/06/17 09:34:28;;;;;;;2.97;1.20;;;24.10;70.20;;;;;;4979931;28;20427;-85
2022/06/17 09:37:05;;;;;;;1.47;1.00;;;25.30;73.40;;;;;;4996020;28;20413;-76
2022/06/17 09:39:44;;;;;;;7.33;1.43;;;25.50;69.60;;;;;;4992497;28;20912;-76
2022/06/17 09:42:16;;;;;;;4.57;1.53;;;25.80;70.30;;;;;;4992510;28;20461;-76
2022/06/17 09:45:12;;;;;;;1.73;1.00;;;26.40;70.80;;;;;;4975225;28;20416;-76
2022/06/17 09:47:44;;;;;;;2.30;1.10;;;26.40;68.10;;;;;;4990650;28;20421;-76
2022/06/17 09:50:26;;;;;;;3.43;1.20;;;26.00;69.50;;;;;;4992580;28;20408;-72
2022/06/17 09:53:01;;;;;;;6.10;0.90;;;25.40;71.70;;;;;;4992606;28;20810;-76
2022/06/17 09:55:37;;;;;;;1.50;0.97;;;25.40;73.70;;;;;;4992326;28;20425;-76
2022/06/17 09:58:11;;;;;;;2.80;1.00;;;26.00;73.00;;;;;;4992067;28;20471;-76
2022/06/17 10:00:42;;;;;;;2.17;1.23;;;26.50;72.00;;;;;;4992406;28;20436;-76
2022/06/17 10:03:18;;;;;;;3.63;1.20;;;27.40;68.70;;;;;;4995947;28;20396;-77
2022/06/17 10:06:19;;;;;;;8.90;1.27;;;27.80;68.00;;;;;;4996204;28;20448;-76
2022/06/17 10:09:07;;;;;;;3.43;1.20;;;27.40;65.50;;;;;;4996221;28;20415;-76
2022/06/17 10:11:48;;;;;;;2.50;1.00;;;26.90;69.20;;;;;;4996255;28;20768;-76
2022/06/17 10:14:26;;;;;;;1.63;1.00;;;27.10;68.40;;;;;;4996801;28;20448;-76
2022/06/17 10:20:15;;;;;;;6.33;1.00;;;27.00;70.70;;;;;;4994882;28;20479;-76
2022/06/17 10:22:51;;;;;;;3.20;1.10;;;27.40;70.60;;;;;;5257678;22;20505;-78
2022/06/17 10:25:35;;;;;;;2.47;0.93;;;27.40;69.40;;;;;;5022170;28;20426;-78
2022/06/17 10:28:27;;;;;;;4.17;1.00;;;27.40;68.20;;;;;;5037383;28;20481;-78
2022/06/17 10:31:03;;;;;;;1.83;0.93;;;27.30;69.20;;;;;;5032722;28;20427;-78
2022/06/17 10:33:33;;;;;;;2.90;1.07;;;27.20;72.20;;;;;;5013010;28;20418;-78
2022/06/17 10:35:59;;;;;;;3.13;0.87;;;27.50;66.20;;;;;;5017299;28;20419;-78
2022/06/17 10:38:35;;;;;;;1.83;1.10;;;26.70;67.00;;;;;;5024705;28;20565;-78
2022/06/17 10:41:00;;;;;;;2.90;0.90;;;26.10;65.90;;;;;;5018087;28;20537;-79
2022/06/17 10:43:32;;;;;;;3.67;1.00;;;25.70;69.70;;;;;;5013443;28;20455;-78
2022/06/17 10:45:59;;;;;;;2.27;0.90;;;24.80;68.90;;;;;;5017966;28;20637;-78
2022/06/17 10:48:43;;;;;;;1.60;0.87;;;25.30;74.90;;;;;;5016890;28;20420;-78
2022/06/17 10:51:09;;;;;;;2.70;1.30;;;25.70;67.20;;;;;;4998891;28;20450;-78
2022/06/17 10:53:47;;;;;;;6.03;1.17;;;24.90;67.90;;;;;;5016248;28;20447;-77
2022/06/17 10:56:39;;;;;;;2.53;1.10;;;24.40;68.70;;;;;;5014792;28;20434;-78
2022/06/17 10:59:09;;;;;;;2.13;0.97;;;24.70;68.80;;;;;;5023873;28;20459;-78
2022/06/17 11:01:53;;;;;;;1.93;1.00;;;25.00;69.00;;;;;;5041193;28;20446;-79
2022/06/17 11:04:25;;;;;;;1.90;1.00;;;26.30;74.30;;;;;;5017402;28;20409;-77
2022/06/17 11:07:15;;;;;;;1.80;0.93;;;27.00;68.90;;;;;;5016563;28;20403;-78
2022/06/17 11:09:52;;;;;;;6.73;1.20;;;27.10;68.00;;;;;;5016264;28;20403;-78
2022/06/17 11:12:24;;;;;;;2.50;1.10;;;27.50;70.40;;;;;;5016380;28;20427;-78
2022/06/17 11:14:54;;;;;;;1.83;1.13;;;26.30;65.20;;;;;;5014964;28;20412;-78
2022/06/17 11:17:41;;;;;;;6.07;1.30;;;25.80;65.20;;;;;;5015613;28;20500;-78
2022/06/17 11:20:23;;;;;;;7.20;1.20;;;26.10;67.90;;;;;;5019439;28;20533;-77
2022/06/17 11:23:22;;;;;;;4.50;1.47;;;26.50;67.60;;;;;;5014912;28;20431;-75
2022/06/17 11:25:54;;;;;;;2.10;0.90;;;26.70;71.40;;;;;;4990053;28;20424;-75
2022/06/17 11:28:38;;;;;;;4.63;1.10;;;27.10;64.40;;;;;;4977610;28;20978;-75
2022/06/17 11:31:07;;;;;;;3.77;1.10;;;27.20;67.10;;;;;;4995410;28;20438;-75
2022/06/17 11:33:51;;;;;;;3.83;1.03;;;26.40;65.30;;;;;;4994904;28;20432;-78
2022/06/17 11:36:30;;;;;;;3.60;1.10;;;26.30;68.70;;;;;;4977445;28;20798;-78
2022/06/17 11:38:57;;;;;;;6.30;1.23;;;26.90;66.90;;;;;;5010214;28;20547;-75
2022/06/17 11:41:27;;;;;;;2.37;1.03;;;27.20;69.60;;;;;;5014096;28;20431;-75
2022/06/17 11:43:55;;;;;;;3.97;1.13;;;27.40;66.30;;;;;;5014394;28;20744;-74
2022/06/17 11:46:24;;;;;;;8.77;1.37;;;26.70;63.70;;;;;;5014322;28;20816;-75
2022/06/17 11:48:59;;;;;;;2.07;0.90;;;26.80;67.90;;;;;;5014091;28;20422;-75
2022/06/17 11:51:32;;;;;;;3.80;1.07;;;26.60;64.60;;;;;;4996355;28;20462;-75
2022/06/17 11:54:09;;;;;;;3.10;1.00;;;27.30;69.50;;;;;;5014170;28;20502;-77
2022/06/17 11:56:41;;;;;;;3.13;0.90;;;27.90;68.90;;;;;;5013913;28;20906;-75
2022/06/17 11:59:14;;;;;;;1.87;0.80;;;28.30;64.70;;;;;;5013734;28;20463;-75
2022/06/17 12:01:41;;;;;;;1.77;0.97;;;28.60;67.60;;;;;;5013828;28;20431;-76
2022/06/17 12:04:40;;;;;;;4.90;1.23;;;28.90;63.60;;;;;;5014037;28;20419;-75
2022/06/17 12:07:43;;;;;;;2.07;1.00;;;29.00;62.40;;;;;;5013965;28;20403;-76
2022/06/17 12:10:40;;;;;;;3.27;1.20;;;28.30;65.20;;;;;;5013721;28;20419;-76
2022/06/17 12:13:21;;;;;;;2.00;0.80;;;28.20;65.30;;;;;;5000293;28;20915;-75
2022/06/17 12:16:14;;;;;;;4.67;0.90;;;28.10;63.30;;;;;;5013746;28;20780;-78
2022/06/17 12:18:48;;;;;;;25.13;1.67;;;27.90;63.50;;;;;;5013158;28;20562;-76
2022/06/17 12:21:29;;;;;;;9.03;1.07;;;28.00;64.30;;;;;;5012236;28;20508;-76
2022/06/17 12:24:03;;;;;;;5.70;1.47;;;28.10;65.90;;;;;;5013624;28;20469;-76
2022/06/17 12:26:41;;;;;;;11.77;1.00;;;28.20;63.50;;;;;;5013331;28;20410;-78
2022/06/17 12:29:15;;;;;;;2.63;0.90;;;28.10;65.90;;;;;;5013386;28;20407;-78
2022/06/17 12:32:14;;;;;;;2.57;0.80;;;28.50;66.20;;;;;;5013437;28;20431;-78
2022/06/17 12:34:56;;;;;;;5.50;1.50;;;28.50;61.70;;;;;;5013517;28;20760;-76
2022/06/17 12:37:43;;;;;;;1.97;0.90;;;27.60;63.80;;;;;;5013068;28;20419;-76
2022/06/17 12:40:22;;;;;;;6.40;0.90;;;27.90;64.40;;;;;;5011033;28;20562;-78
2022/06/17 12:43:18;;;;;;;4.00;1.13;;;27.80;62.90;;;;;;5013152;28;20931;-75
2022/06/17 12:45:55;;;;;;;9.90;1.07;;;27.60;66.20;;;;;;5027408;28;20478;-78
2022/06/17 12:48:58;;;;;;;4.80;0.90;;;27.80;64.20;;;;;;5014500;28;20427;-78
2022/06/17 12:54:23;;;;;;;1.47;0.70;;;27.30;63.00;;;;;;5014941;28;20438;-79
2022/06/17 12:57:09;;;;;;;1.20;0.90;;;27.80;64.80;;;;;;4996915;28;20920;-80
2022/06/17 13:00:04;;;;;;;6.60;1.07;;;28.40;64.00;;;;;;5014758;28;20439;-80
2022/06/17 13:02:52;;;;;;;4.10;0.93;;;27.70;61.30;;;;;;4996512;28;20446;-79
2022/06/17 13:05:25;;;;;;;4.47;1.10;;;27.60;66.60;;;;;;4998696;28;20522;-79
2022/06/17 13:08:10;;;;;;;3.47;0.90;;;27.80;65.10;;;;;;5017838;28;20415;-79
2022/06/17 13:10:48;;;;;;;1.97;0.80;;;28.20;64.00;;;;;;5017466;28;20434;-79
2022/06/17 13:13:27;;;;;;;6.07;0.90;;;28.20;63.80;;;;;;5000500;28;20415;-79
2022/06/17 13:16:00;;;;;;;1.33;0.77;;;28.60;63.10;;;;;;5014784;28;20453;-78
2022/06/17 13:18:40;;;;;;;2.80;0.87;;;28.60;60.20;;;;;;4994753;28;20534;-78
2022/06/17 13:21:08;;;;;;;1.23;0.73;;;28.70;61.20;;;;;;5012490;28;20455;-77
2022/06/17 13:24:21;;;;;;;2.97;0.80;;;29.20;60.50;;;;;;5012553;28;20410;-78
2022/06/17 13:26:51;;;;;;;1.67;0.83;;;29.30;60.20;;;;;;5005300;28;20818;-78
2022/06/17 13:29:41;;;;;;;2.87;0.90;;;29.30;60.10;;;;;;5012026;28;20775;-78
2022/06/17 13:32:19;;;;;;;2.93;0.80;;;28.30;56.50;;;;;;5012093;28;20435;-78
2022/06/17 13:34:56;;;;;;;3.00;0.80;;;28.20;62.60;;;;;;5012400;28;20460;-78
2022/06/17 13:37:47;;;;;;;5.30;0.90;;;28.00;59.70;;;;;;5011213;28;20477;-78
2022/06/17 13:40:30;;;;;;;1.63;0.70;;;28.20;59.90;;;;;;5012263;28;20426;-77
2022/06/17 13:43:01;;;;;;;1.93;0.87;;;28.10;62.00;;;;;;5001538;28;20946;-78
2022/06/17 13:45:41;;;;;;;2.50;0.70;;;28.10;58.20;;;;;;5011927;28;20505;-77
2022/06/17 13:48:30;;;;;;;5.33;0.90;;;28.40;59.30;;;;;;4991862;28;20454;-77
2022/06/17 13:51:19;;;;;;;3.00;0.93;;;28.40;59.60;;;;;;4978723;28;20480;-78
2022/06/17 13:54:22;;;;;;;5.17;0.90;;;28.10;60.20;;;;;;4991539;28;20423;-77
2022/06/17 13:57:05;;;;;;;4.60;0.70;;;27.00;60.90;;;;;;4992547;28;20399;-77
2022/06/17 13:59:41;;;;;;;1.50;0.70;;;27.90;63.10;;;;;;4991470;28;20471;-77
2022/06/17 14:02:13;;;;;;;1.20;0.70;;;28.00;62.30;;;;;;5008758;28;20435;-77
2022/06/17 14:05:11;;;;;;;2.90;0.70;;;28.30;62.70;;;;;;5012081;28;20419;-77
2022/06/17 14:07:49;;;;;;;3.33;1.13;;;28.80;58.60;;;;;;4993838;28;20430;-77
2022/06/17 14:10:36;;;;;;;1.43;0.70;;;28.80;59.50;;;;;;5011968;28;20442;-79
2022/06/17 14:13:23;;;;;;;1.17;0.80;;;28.50;57.40;;;;;;5012008;28;20399;-78
2022/06/17 14:16:06;;;;;;;1.97;0.90;;;28.10;59.90;;;;;;5011971;28;20392;-77
2022/06/17 14:18:48;;;;;;;4.70;0.80;;;28.80;59.30;;;;;;4993743;28;20544;-77
2022/06/17 14:21:26;;;;;;;1.13;0.70;;;29.10;60.10;;;;;;5011765;28;20446;-76
2022/06/17 14:23:56;;;;;;;2.57;0.90;;;28.80;59.50;;;;;;5011179;28;20419;-77
2022/06/17 14:26:40;;;;;;;5.30;0.83;;;28.80;57.60;;;;;;5011542;28;20487;-79
2022/06/17 14:29:08;;;;;;;4.67;0.80;;;29.00;58.10;;;;;;4991560;28;20499;-78
2022/06/17 14:31:36;;;;;;;2.43;0.70;;;28.70;59.60;;;;;;4991898;28;20432;-78
2022/06/17 14:34:09;;;;;;;1.17;0.90;;;29.00;59.00;;;;;;4992168;28;20404;-78
2022/06/17 14:36:55;;;;;;;2.23;0.80;;;28.90;56.90;;;;;;4992050;28;20412;-78
2022/06/17 14:39:33;;;;;;;0.90;0.60;;;28.60;57.40;;;;;;4991412;28;20460;-78
2022/06/17 14:42:17;;;;;;;4.10;1.00;;;29.30;59.20;;;;;;4992050;28;20807;-78
2022/06/17 14:45:02;;;;;;;2.90;1.10;;;29.60;57.80;;;;;;4991988;28;20449;-78
2022/06/17 14:47:41;;;;;;;1.47;0.70;;;29.40;57.90;;;;;;4992383;28;20423;-78
2022/06/17 14:50:24;;;;;;;1.50;0.70;;;28.90;56.10;;;;;;4995691;28;20415;-78
2022/06/17 14:52:52;;;;;;;3.40;0.70;;;28.70;58.00;;;;;;4995499;28;20744;-79
2022/06/17 14:55:27;;;;;;;1.47;0.80;;;28.40;61.20;;;;;;4997095;28;20408;-79
2022/06/17 14:57:55;;;;;;;3.43;0.90;;;28.80;59.60;;;;;;4997365;28;20447;-78
2022/06/17 15:00:24;;;;;;;1.30;0.60;;;29.10;55.30;;;;;;4996765;28;20741;-78
2022/06/17 15:02:52;;;;;;;1.47;0.77;;;29.00;57.40;;;;;;4995843;28;20911;-78
2022/06/17 15:05:37;;;;;;;2.30;0.67;;;29.30;56.60;;;;;;4995386;28;20430;-78
2022/06/17 15:08:12;;;;;;;3.10;0.67;;;29.10;57.20;;;;;;4977490;28;20819;-78
2022/06/17 15:10:38;;;;;;;2.60;1.07;;;28.90;60.20;;;;;;4977587;28;20446;-78
2022/06/17 15:15:57;;;;;;;4.80;0.73;;;28.80;57.70;;;;;;4995385;28;20764;-78
2022/06/17 15:18:23;;;;;;;0.90;0.60;;;28.40;54.80;;;;;;4994948;28;20462;-78
2022/06/17 15:20:52;;;;;;;4.47;0.70;;;27.50;56.40;;;;;;4995181;28;20783;-78
2022/06/17 15:23:38;;;;;;;2.60;0.60;;;27.40;59.40;;;;;;4977614;28;20185;-79
2022/06/17 15:26:12;;;;;;;1.83;0.80;;;27.60;57.00;;;;;;4995129;28;20957;-79
2022/06/17 15:28:42;;;;;;;2.53;0.70;;;27.90;60.70;;;;;;4994772;28;20459;-78
2022/06/17 15:31:14;;;;;;;2.23;0.60;;;28.10;57.70;;;;;;4994930;28;20455;-78
2022/06/17 15:33:46;;;;;;;1.60;0.80;;;28.00;59.00;;;;;;4994886;28;20416;-78
2022/06/17 15:36:21;;;;;;;2.20;1.07;;;27.90;59.30;;;;;;4994920;28;20774;-79
2022/06/17 15:38:59;;;;;;;2.30;0.70;;;27.80;59.70;;;;;;4994712;28;20451;-78
2022/06/17 15:41:32;;;;;;;2.87;0.67;;;27.60;60.40;;;;;;4995061;28;20873;-79
2022/06/17 15:44:14;;;;;;;1.57;0.70;;;27.80;60.70;;;;;;4994816;28;20978;-80
2022/06/17 15:46:40;;;;;;;1.30;0.70;;;28.00;60.00;;;;;;4994832;28;20411;-79
2022/06/17 15:49:20;;;;;;;1.80;0.70;;;28.00;58.20;;;;;;4994279;28;20412;-79
2022/06/17 15:51:50;;;;;;;11.27;0.80;;;28.10;58.90;;;;;;4977654;28;20197;-79
2022/06/17 15:54:18;;;;;;;3.87;0.73;;;28.20;56.10;;;;;;4994663;28;20420;-79
2022/06/17 15:56:50;;;;;;;1.97;0.77;;;28.40;57.80;;;;;;4994499;28;20941;-79
2022/06/17 15:59:20;;;;;;;1.37;0.80;;;28.40;58.70;;;;;;4993695;28;20554;-79
2022/06/17 16:01:53;;;;;;;2.67;0.80;;;28.60;60.60;;;;;;4995562;28;20427;-80
2022/06/17 16:04:30;;;;;;;1.20;0.50;;;28.60;58.00;;;;;;4996120;28;20536;-80
2022/06/17 16:07:13;;;;;;;2.50;0.80;;;28.30;55.70;;;;;;4995507;28;20400;-80
2022/06/17 16:09:59;;;;;;;1.47;0.60;;;27.50;54.00;;;;;;4977986;28;20935;-80
2022/06/17 16:12:25;;;;;;;1.53;0.60;;;27.30;56.80;;;;;;4978262;28;20440;-80
2022/06/17 16:14:54;;;;;;;1.40;0.70;;;26.90;60.30;;;;;;4995474;28;20427;-78
2022/06/17 16:17:28;;;;;;;1.40;0.70;;;26.60;61.80;;;;;;4995325;28;20181;-78
2022/06/17 16:20:00;;;;;;;6.60;0.90;;;26.20;59.60;;;;;;4994795;28;20409;-79
2022/06/17 16:22:34;;;;;;;1.47;0.70;;;26.30;60.40;;;;;;4994204;28;20482;-79
2022/06/17 16:25:30;;;;;;;0.90;0.70;;;26.40;63.20;;;;;;4979511;28;20408;-79
2022/06/17 16:28:03;;;;;;;2.70;0.80;;;26.50;65.00;;;;;;4993183;28;20748;-79
2022/06/17 18:06:16;;;;;;;2.30;0.87;;;23.40;82.90;;;;;;4971090;28;20528;-78
2022/06/17 18:08:41;;;;;;;1.83;0.77;;;23.20;82.50;;;;;;4972851;28;20422;-78
2022/06/17 18:11:09;;;;;;;1.50;0.80;;;23.00;82.60;;;;;;4972905;28;20487;-78
2022/06/17 18:13:34;;;;;;;1.30;0.80;;;22.70;83.80;;;;;;4975237;28;20194;-79
2022/06/17 18:16:03;;;;;;;2.63;0.80;;;22.60;83.70;;;;;;4976184;28;20409;-77
2022/06/17 18:18:29;;;;;;;1.00;0.60;;;22.50;84.30;;;;;;4973623;28;20208;-78
2022/06/17 18:20:54;;;;;;;1.20;0.70;;;22.30;83.80;;;;;;4975207;28;20429;-79
2022/06/17 18:23:20;;;;;;;3.27;0.90;;;22.10;85.20;;;;;;4978296;28;20177;-79
2022/06/17 18:25:46;;;;;;;4.17;1.60;;;22.00;84.40;;;;;;4980316;28;20545;-79
2022/06/17 18:28:12;;;;;;;1.97;0.80;;;21.90;83.40;;;;;;4978431;28;20174;-79
2022/06/17 18:30:39;;;;;;;5.00;0.60;;;21.70;85.90;;;;;;4979600;28;21024;-79
2022/06/17 18:33:05;;;;;;;2.13;0.83;;;21.70;86.20;;;;;;4978970;28;20194;-79
2022/06/17 18:35:34;;;;;;;1.83;0.80;;;21.70;85.40;;;;;;4978023;28;20421;-79
2022/06/17 18:38:00;;;;;;;3.00;0.73;;;21.60;84.80;;;;;;4979169;28;20666;-79
2022/06/17 18:40:29;;;;;;;8.93;0.90;;;21.60;84.30;;;;;;4978211;28;20476;-78
2022/06/17 18:42:55;;;;;;;3.40;0.87;;;21.60;84.10;;;;;;4976631;28;20853;-78
2022/06/17 18:45:27;;;;;;;2.37;2.03;;;21.50;88.80;;;;;;4976734;28;20485;-79
2022/06/17 18:47:56;;;;;;;2.20;0.70;;;21.30;89.80;;;;;;4979587;28;20178;-78
2022/06/17 18:50:21;;;;;;;2.60;0.80;;;21.20;89.60;;;;;;4979877;28;20414;-78
2022/06/17 18:52:47;;;;;;;1.57;0.90;;;21.00;87.80;;;;;;4991386;28;20984;-78
2022/06/17 18:55:15;;;;;;;2.23;0.70;;;20.90;88.10;;;;;;4989396;28;20174;-79
2022/06/17 18:57:40;;;;;;;1.90;0.70;;;20.70;89.40;;;;;;4982472;28;20185;-78
2022/06/17 19:00:08;;;;;;;6.00;0.90;;;20.60;88.60;;;;;;4975673;28;20426;-79
2022/06/17 19:02:35;;;;;;;1.33;0.70;;;20.50;87.30;;;;;;4975846;28;20194;-79
2022/06/17 19:05:04;;;;;;;2.10;0.70;;;20.50;87.50;;;;;;4976763;28;20436;-78
2022/06/17 19:18:32;;;;;;;4.97;0.77;;;19.80;91.60;;;;;;4976685;28;20484;-79
2022/06/17 19:21:00;;;;;;;1.07;0.60;;;19.70;92.00;;;;;;4976602;28;20441;-79
2022/06/17 19:23:26;;;;;;;3.77;0.87;;;19.70;93.40;;;;;;4976287;28;21069;-79
2022/06/17 19:25:54;;;;;;;1.93;0.80;;;19.60;94.10;;;;;;4976370;28;20474;-79